createdAt,value
2019-05-01T00:01:36.980Z,95108.33
2019-05-01T00:04:23.787Z,95109.69
2019-05-01T00:07:03.998Z,95106.78
2019-05-01T00:09:34.103Z,95113.38
2019-05-01T00:12:03.624Z,95101.79
2019-05-01T00:14:33.172Z,95101.16
2019-05-01T00:17:02.786Z,95104.12
2019-05-01T00:19:32.344Z,95100.72
2019-05-01T00:22:01.815Z,95103.08
2019-05-01T00:24:31.319Z,95106.77
2019-05-01T00:27:00.795Z,95100.18
2019-05-01T00:29:30.363Z,95101.58
2019-05-01T00:31:59.838Z,95107.82
2019-05-01T00:34:29.361Z,95103.58
2019-05-01T00:36:59.886Z,95111.61
2019-05-01T00:39:29.376Z,95108.85
2019-05-01T00:41:58.856Z,95109.53
2019-05-01T00:44:28.382Z,95107.16
2019-05-01T00:46:57.852Z,95103.93
2019-05-01T00:49:28.208Z,95111.85
2019-05-01T00:51:57.751Z,95108.07
2019-05-01T00:54:28.045Z,95107.71
2019-05-01T00:57:08.105Z,95099.78
2019-05-01T00:59:45.172Z,95103.66
2019-05-01T01:02:31.213Z,95104.75
2019-05-01T01:05:00.727Z,95102.16
2019-05-01T01:07:30.210Z,95094.35
2019-05-01T01:09:59.695Z,95093.52
2019-05-01T01:12:29.189Z,95091.94
2019-05-01T01:14:58.708Z,95095.81
2019-05-01T01:17:29.433Z,95092.71
2019-05-01T01:19:58.936Z,95096.25
2019-05-01T01:22:28.854Z,95091.85
2019-05-01T01:24:58.411Z,95087.30
2019-05-01T01:27:28.067Z,95082.83
2019-05-01T01:29:58.030Z,95083.23
2019-05-01T01:32:27.540Z,95076.95
2019-05-01T01:34:57.097Z,95080.70
2019-05-01T01:37:26.567Z,95083.75
2019-05-01T01:39:56.128Z,95083.48
2019-05-01T01:42:26.827Z,95083.73
2019-05-01T01:45:00.999Z,95081.06
2019-05-01T01:47:30.547Z,95082.30
2019-05-01T01:50:00.242Z,95069.00
2019-05-01T01:52:30.071Z,95067.13
2019-05-01T01:54:59.694Z,95072.75
2019-05-01T01:57:29.494Z,95065.47
2019-05-01T01:59:59.265Z,95063.05
2019-05-01T02:02:33.277Z,95063.30
2019-05-01T02:05:12.994Z,95067.00
2019-05-01T02:07:42.825Z,95058.03
2019-05-01T02:10:12.601Z,95061.23
2019-05-01T02:12:42.849Z,95062.17
2019-05-01T02:15:12.682Z,95060.44
2019-05-01T02:17:42.162Z,95059.03
2019-05-01T02:20:12.685Z,95060.34
2019-05-01T02:22:42.257Z,95056.70
2019-05-01T02:25:13.344Z,95061.91
2019-05-01T02:27:48.492Z,95056.29
2019-05-01T02:30:19.638Z,95057.11
2019-05-01T02:32:49.828Z,95057.13
2019-05-01T02:35:19.966Z,95055.52
2019-05-01T02:37:50.546Z,95057.05
2019-05-01T02:40:42.829Z,95051.06
2019-05-01T02:43:17.386Z,95053.52
2019-05-01T02:45:51.169Z,95048.48
2019-05-01T02:48:23.057Z,95045.44
2019-05-01T02:50:56.443Z,95051.58
2019-05-01T02:53:27.767Z,95046.50
2019-05-01T02:56:13.728Z,95044.61
2019-05-01T02:58:46.036Z,95043.69
2019-05-01T03:01:16.302Z,95040.41
2019-05-01T03:03:46.609Z,95046.30
2019-05-01T03:06:16.371Z,95038.55
2019-05-01T03:08:46.272Z,95040.17
2019-05-01T03:11:15.770Z,95042.17
2019-05-01T03:13:47.717Z,95041.86
2019-05-01T03:16:18.461Z,95036.69
2019-05-01T03:18:53.389Z,95039.52
2019-05-01T03:21:24.818Z,95039.75
2019-05-01T03:24:01.794Z,95038.78
2019-05-01T03:26:31.848Z,95039.52
2019-05-01T03:29:01.345Z,95041.27
2019-05-01T03:31:30.916Z,95039.48
2019-05-01T03:34:00.491Z,95036.58
2019-05-01T03:36:30.283Z,95033.26
2019-05-01T03:39:00.409Z,95037.14
2019-05-01T03:41:30.082Z,95033.86
2019-05-01T03:43:59.726Z,95033.26
2019-05-01T03:46:29.658Z,95034.33
2019-05-01T03:48:59.583Z,95031.84
2019-05-01T03:51:29.204Z,95031.84
2019-05-01T03:53:59.270Z,95038.07
2019-05-01T03:56:29.712Z,95038.66
2019-05-01T03:58:59.923Z,95038.99
2019-05-01T04:01:37.432Z,95037.83
2019-05-01T04:04:08.997Z,95034.78
2019-05-01T04:06:39.948Z,95035.48
2019-05-01T04:09:09.571Z,95037.92
2019-05-01T04:11:39.286Z,95038.16
2019-05-01T04:14:09.706Z,95038.75
2019-05-01T04:16:40.775Z,95043.31
2019-05-01T04:19:11.323Z,95033.95
2019-05-01T04:21:43.080Z,95036.91
2019-05-01T04:24:12.573Z,95037.05
2019-05-01T04:26:42.688Z,95034.20
2019-05-01T04:29:14.898Z,95031.28
2019-05-01T04:31:53.645Z,95040.33
2019-05-01T04:34:33.786Z,95037.61
2019-05-01T04:37:06.119Z,95041.63
2019-05-01T04:39:35.872Z,95035.97
2019-05-01T04:42:05.433Z,95040.42
2019-05-01T04:44:35.191Z,95043.16
2019-05-01T04:47:04.944Z,95046.66
2019-05-01T04:49:34.553Z,95046.73
2019-05-01T04:52:04.100Z,95053.66
2019-05-01T04:54:33.693Z,95055.26
2019-05-01T04:57:03.272Z,95057.78
2019-05-01T04:59:33.722Z,95050.15
2019-05-01T05:02:05.500Z,95050.09
2019-05-01T05:04:35.061Z,95056.50
2019-05-01T05:07:04.763Z,95057.16
2019-05-01T05:09:38.731Z,95048.69
2019-05-01T05:12:10.541Z,95046.64
2019-05-01T05:14:45.002Z,95049.59
2019-05-01T05:17:16.283Z,95038.95
2019-05-01T05:19:46.175Z,95021.29
2019-05-01T05:22:16.732Z,95012.09
2019-05-01T05:24:47.144Z,95023.15
2019-05-01T05:27:18.077Z,95018.25
2019-05-01T05:29:49.102Z,95030.39
2019-05-01T05:32:21.035Z,95020.52
2019-05-01T05:34:54.043Z,95016.52
2019-05-01T05:37:28.226Z,95016.77
2019-05-01T05:40:00.109Z,95023.69
2019-05-01T05:42:30.802Z,95023.18
2019-05-01T05:45:00.634Z,95019.65
2019-05-01T05:47:30.878Z,95024.92
2019-05-01T05:50:00.360Z,95020.57
2019-05-01T05:52:33.322Z,95022.95
2019-05-01T05:55:11.358Z,95021.32
2019-05-01T05:57:55.158Z,95025.67
2019-05-01T06:00:34.291Z,95025.49
2019-05-01T06:03:17.230Z,95021.07
2019-05-01T06:05:54.348Z,95021.70
2019-05-01T06:08:28.004Z,95023.05
2019-05-01T06:11:16.610Z,95020.66
2019-05-01T06:14:01.142Z,95014.55
2019-05-01T06:16:34.586Z,95015.44
2019-05-01T06:19:14.526Z,95021.36
2019-05-01T06:21:44.993Z,95015.59
2019-05-01T06:24:16.290Z,95011.72
2019-05-01T06:26:46.716Z,95010.69
2019-05-01T06:29:16.484Z,95013.16
2019-05-01T06:31:46.059Z,95008.58
2019-05-01T06:34:15.763Z,95010.77
2019-05-01T06:36:49.579Z,95012.56
2019-05-01T06:39:16.578Z,95015.16
2019-05-01T06:41:46.081Z,95013.89
2019-05-01T06:44:24.965Z,95011.88
2019-05-01T06:47:03.246Z,95010.27
2019-05-01T06:49:32.901Z,95013.25
2019-05-01T06:52:06.369Z,95003.91
2019-05-01T06:54:36.975Z,95007.09
2019-05-01T06:57:07.115Z,94999.03
2019-05-01T06:59:38.694Z,94998.26
2019-05-01T07:02:10.315Z,95002.61
2019-05-01T07:04:40.321Z,94996.75
2019-05-01T07:07:24.758Z,94999.08
2019-05-01T07:09:48.785Z,95001.75
2019-05-01T07:12:15.670Z,94990.22
2019-05-01T07:14:47.116Z,94997.09
2019-05-01T07:17:16.933Z,94992.88
2019-05-01T07:20:05.162Z,94986.80
2019-05-01T07:22:37.127Z,94992.00
2019-05-01T07:25:08.543Z,94979.52
2019-05-01T07:27:38.115Z,94985.27
2019-05-01T07:30:15.851Z,94987.09
2019-05-01T07:32:45.544Z,94994.55
2019-05-01T07:35:15.109Z,94988.45
2019-05-01T07:37:44.826Z,94995.58
2019-05-01T07:40:14.694Z,94988.30
2019-05-01T07:42:48.198Z,94988.88
2019-05-01T07:45:29.026Z,94991.39
2019-05-01T07:48:00.961Z,94987.66
2019-05-01T07:50:32.616Z,94978.69
2019-05-01T07:53:02.115Z,94977.52
2019-05-01T07:55:37.661Z,94970.64
2019-05-01T07:58:15.147Z,94969.77
2019-05-01T08:00:54.563Z,94971.64
2019-05-01T08:03:24.086Z,94969.70
2019-05-01T08:05:53.614Z,94965.13
2019-05-01T08:08:23.114Z,94963.81
2019-05-01T08:10:52.586Z,94957.67
2019-05-01T08:13:22.070Z,94964.77
2019-05-01T08:15:51.609Z,94966.52
2019-05-01T08:18:36.206Z,94957.50
2019-05-01T08:21:13.449Z,94963.56
2019-05-01T08:23:47.175Z,94954.68
2019-05-01T08:26:14.208Z,94960.34
2019-05-01T08:29:02.937Z,94961.05
2019-05-01T08:31:35.136Z,94968.91
2019-05-01T08:34:09.546Z,94962.67
2019-05-01T08:36:42.577Z,94962.77
2019-05-01T08:39:12.402Z,94970.92
2019-05-01T08:41:41.718Z,94964.63
2019-05-01T08:44:11.189Z,94963.53
2019-05-01T08:46:42.339Z,94962.86
2019-05-01T08:49:22.021Z,94967.16
2019-05-01T08:51:51.487Z,94966.26
2019-05-01T08:54:21.175Z,94961.48
2019-05-01T08:56:53.100Z,94965.81
2019-05-01T08:59:23.889Z,94960.94
2019-05-01T09:02:08.458Z,94956.73
2019-05-01T09:04:25.397Z,94955.50
2019-05-01T09:06:55.668Z,94958.49
2019-05-01T09:09:25.135Z,94960.12
2019-05-01T09:11:54.842Z,94958.62
2019-05-01T09:14:25.396Z,94949.78
2019-05-01T09:16:54.918Z,94957.31
2019-05-01T09:19:24.438Z,94958.13
2019-05-01T09:21:53.904Z,94959.73
2019-05-01T09:24:27.986Z,94958.11
2019-05-01T09:27:08.116Z,94954.05
2019-05-01T09:29:46.790Z,94960.12
2019-05-01T09:32:18.697Z,94956.09
2019-05-01T09:34:47.605Z,94953.98
2019-05-01T09:37:17.089Z,94948.05
2019-05-01T09:39:47.432Z,94943.06
2019-05-01T09:42:22.677Z,94942.02
2019-05-01T09:44:48.364Z,94940.73
2019-05-01T09:47:18.060Z,94937.62
2019-05-01T09:49:48.740Z,94938.05
2019-05-01T09:52:36.857Z,94933.96
2019-05-01T09:55:09.783Z,94932.15
2019-05-01T09:57:41.503Z,94941.20
2019-05-01T10:00:12.383Z,94930.75
2019-05-01T10:02:43.945Z,94931.17
2019-05-01T10:05:13.581Z,94935.32
2019-05-01T10:07:43.055Z,94930.68
2019-05-01T10:10:12.749Z,94929.96
2019-05-01T10:12:47.041Z,94936.64
2019-05-01T10:15:13.587Z,94928.75
2019-05-01T10:17:43.063Z,94921.92
2019-05-01T10:20:12.794Z,94926.38
2019-05-01T10:22:42.264Z,94921.53
2019-05-01T10:25:13.496Z,94916.80
2019-05-01T10:27:53.774Z,94920.51
2019-05-01T10:30:41.100Z,94916.42
2019-05-01T10:33:17.917Z,94911.42
2019-05-01T10:35:49.042Z,94917.20
2019-05-01T10:38:18.523Z,94916.38
2019-05-01T10:40:48.050Z,94904.03
2019-05-01T10:43:17.548Z,94898.19
2019-05-01T10:45:47.036Z,94897.36
2019-05-01T10:48:16.599Z,94889.88
2019-05-01T10:50:46.099Z,94890.99
2019-05-01T10:53:15.702Z,94892.87
2019-05-01T10:55:45.185Z,94893.48
2019-05-01T10:58:17.943Z,94888.70
2019-05-01T11:00:47.535Z,94890.95
2019-05-01T11:03:17.041Z,94899.23
2019-05-01T11:05:55.652Z,94892.66
2019-05-01T11:08:18.735Z,94886.53
2019-05-01T11:10:48.261Z,94890.69
2019-05-01T11:13:17.739Z,94877.23
2019-05-01T11:15:47.232Z,94876.33
2019-05-01T11:18:16.772Z,94875.90
2019-05-01T11:20:46.296Z,94878.30
2019-05-01T11:23:15.801Z,94875.34
2019-05-01T11:25:45.284Z,94873.77
2019-05-01T11:28:14.760Z,94867.27
2019-05-01T11:30:44.328Z,94869.18
2019-05-01T11:33:15.449Z,94870.06
2019-05-01T11:35:50.713Z,94862.21
2019-05-01T11:38:21.873Z,94863.54
2019-05-01T11:41:08.994Z,94860.16
2019-05-01T11:43:38.499Z,94857.89
2019-05-01T11:46:08.013Z,94865.38
2019-05-01T11:48:37.712Z,94858.02
2019-05-01T11:51:07.372Z,94857.09
2019-05-01T11:53:36.842Z,94855.92
2019-05-01T11:56:06.466Z,94857.39
2019-05-01T11:58:35.978Z,94848.09
2019-05-01T12:01:06.747Z,94853.33
2019-05-01T12:03:36.221Z,94849.09
2019-05-01T12:06:05.788Z,94853.34
2019-05-01T12:08:35.270Z,94840.69
2019-05-01T12:11:06.596Z,94843.49
2019-05-01T12:13:43.635Z,94845.77
2019-05-01T12:16:11.686Z,94844.70
2019-05-01T12:18:41.165Z,94842.92
2019-05-01T12:21:10.658Z,94841.56
2019-05-01T12:23:40.175Z,94843.19
2019-05-01T12:26:09.661Z,94844.98
2019-05-01T12:28:39.415Z,94840.14
2019-05-01T12:31:08.942Z,94835.41
2019-05-01T12:33:38.428Z,94828.23
2019-05-01T12:36:08.849Z,94830.53
2019-05-01T12:38:38.351Z,94833.09
2019-05-01T12:41:20.972Z,94829.84
2019-05-01T12:43:50.450Z,94823.92
2019-05-01T12:46:36.428Z,94823.29
2019-05-01T12:49:06.449Z,94824.17
2019-05-01T12:51:36.867Z,94827.91
2019-05-01T12:54:24.023Z,94826.95
2019-05-01T12:56:55.151Z,94816.23
2019-05-01T12:59:24.663Z,94821.75
2019-05-01T13:01:54.144Z,94822.66
2019-05-01T13:04:24.701Z,94812.05
2019-05-01T13:06:58.085Z,94817.87
2019-05-01T13:09:27.556Z,94811.20
2019-05-01T13:11:57.050Z,94809.80
2019-05-01T13:14:26.557Z,94808.45
2019-05-01T13:16:56.041Z,94804.80
2019-05-01T13:19:25.520Z,94799.38
2019-05-01T13:21:55.109Z,94804.80
2019-05-01T13:24:24.612Z,94805.64
2019-05-01T13:26:58.436Z,94802.53
2019-05-01T13:29:29.561Z,94796.21
2019-05-01T13:32:06.438Z,94792.15
2019-05-01T13:34:35.934Z,94790.36
2019-05-01T13:37:06.595Z,94790.56
2019-05-01T13:39:36.150Z,94781.57
2019-05-01T13:42:08.977Z,94777.55
2019-05-01T13:44:38.158Z,94779.10
2019-05-01T13:47:07.732Z,94771.23
2019-05-01T13:49:37.198Z,94766.16
2019-05-01T13:52:06.695Z,94765.00
2019-05-01T13:54:36.254Z,94759.02
2019-05-01T13:57:06.010Z,94756.58
2019-05-01T13:59:35.553Z,94753.39
2019-05-01T14:02:05.094Z,94756.48
2019-05-01T14:04:34.865Z,94748.11
2019-05-01T14:07:15.884Z,94750.98
2019-05-01T14:09:35.969Z,94750.08
2019-05-01T14:12:05.626Z,94747.23
2019-05-01T14:14:35.092Z,94741.70
2019-05-01T14:17:04.627Z,94745.38
2019-05-01T14:19:35.787Z,94745.10
2019-05-01T14:22:24.954Z,94737.14
2019-05-01T14:24:58.840Z,94742.94
2019-05-01T14:27:28.618Z,94732.27
2019-05-01T14:29:58.180Z,94728.05
2019-05-01T14:32:27.860Z,94729.73
2019-05-01T14:34:57.348Z,94724.84
2019-05-01T14:37:29.915Z,94718.45
2019-05-01T14:39:58.032Z,94716.11
2019-05-01T14:42:27.504Z,94714.98
2019-05-01T14:44:57.033Z,94715.19
2019-05-01T14:47:26.546Z,94707.55
2019-05-01T14:49:56.061Z,94710.56
2019-05-01T14:52:25.983Z,94709.27
2019-05-01T14:54:55.489Z,94707.78
2019-05-01T14:57:24.952Z,94704.03
2019-05-01T14:59:54.495Z,94707.20
2019-05-01T15:02:24.054Z,94706.22
2019-05-01T15:04:54.220Z,94693.83
2019-05-01T15:07:23.722Z,94690.52
2019-05-01T15:09:53.198Z,94694.62
2019-05-01T15:12:22.694Z,94693.55
2019-05-01T15:14:53.818Z,94690.70
2019-05-01T15:17:24.972Z,94690.36
2019-05-01T15:20:01.967Z,94678.97
2019-05-01T15:22:31.445Z,94685.28
2019-05-01T15:25:00.964Z,94683.52
2019-05-01T15:27:30.437Z,94684.05
2019-05-01T15:29:59.978Z,94679.64
2019-05-01T15:32:29.458Z,94678.83
2019-05-01T15:35:00.054Z,94676.98
2019-05-01T15:37:29.596Z,94675.20
2019-05-01T15:40:00.730Z,94672.56
2019-05-01T15:42:37.874Z,94675.27
2019-05-01T15:45:08.145Z,94673.06
2019-05-01T15:47:37.630Z,94666.12
2019-05-01T15:50:08.728Z,94670.67
2019-05-01T15:52:38.280Z,94669.62
2019-05-01T15:55:09.039Z,94668.77
2019-05-01T15:57:38.555Z,94669.90
2019-05-01T16:00:11.087Z,94669.08
2019-05-01T16:02:40.585Z,94661.88
2019-05-01T16:05:10.247Z,94660.01
2019-05-01T16:07:39.733Z,94659.30
2019-05-01T16:10:12.207Z,94661.14
2019-05-01T16:12:48.624Z,94661.71
2019-05-01T16:15:19.836Z,94661.86
2019-05-01T16:17:49.319Z,94659.83
2019-05-01T16:20:18.874Z,94656.91
2019-05-01T16:22:48.371Z,94663.71
2019-05-01T16:25:18.026Z,94659.80
2019-05-01T16:27:47.685Z,94658.45
2019-05-01T16:30:19.339Z,94656.75
2019-05-01T16:32:48.815Z,94655.17
2019-05-01T16:35:18.307Z,94642.79
2019-05-01T16:37:47.897Z,94654.67
2019-05-01T16:40:17.691Z,94651.75
2019-05-01T16:42:47.166Z,94650.49
2019-05-01T16:45:16.779Z,94651.00
2019-05-01T16:47:46.279Z,94648.93
2019-05-01T16:50:16.026Z,94646.95
2019-05-01T16:52:45.549Z,94646.62
2019-05-01T16:55:15.448Z,94645.97
2019-05-01T16:57:44.916Z,94643.92
2019-05-01T17:00:15.818Z,94644.98
2019-05-01T17:02:47.487Z,94645.08
2019-05-01T17:05:18.827Z,94646.73
2019-05-01T17:07:49.979Z,94643.92
2019-05-01T17:10:29.944Z,94639.35
2019-05-01T17:12:59.973Z,94641.65
2019-05-01T17:15:36.738Z,94642.33
2019-05-01T17:18:06.294Z,94641.98
2019-05-01T17:20:35.774Z,94638.73
2019-05-01T17:23:05.762Z,94644.63
2019-05-01T17:25:35.939Z,94641.23
2019-05-01T17:28:08.127Z,94649.50
2019-05-01T17:30:43.098Z,94640.95
2019-05-01T17:33:19.871Z,94645.92
2019-05-01T17:35:44.008Z,94652.80
2019-05-01T17:38:13.487Z,94657.91
2019-05-01T17:40:43.046Z,94651.75
2019-05-01T17:43:15.333Z,94649.89
2019-05-01T17:45:44.953Z,94651.14
2019-05-01T17:48:14.440Z,94656.84
2019-05-01T17:50:43.912Z,94650.15
2019-05-01T17:53:13.478Z,94658.22
2019-05-01T17:55:43.033Z,94654.44
2019-05-01T17:58:12.640Z,94653.62
2019-05-01T18:00:56.085Z,94651.90
2019-05-01T18:03:40.135Z,94649.17
2019-05-01T18:06:14.514Z,94654.44
2019-05-01T18:08:44.023Z,94653.64
2019-05-01T18:11:15.681Z,94651.06
2019-05-01T18:13:45.322Z,94653.75
2019-05-01T18:16:15.073Z,94659.58
2019-05-01T18:18:44.585Z,94659.33
2019-05-01T18:21:14.292Z,94659.60
2019-05-01T18:24:01.344Z,94656.84
2019-05-01T18:26:32.478Z,94662.60
2019-05-01T18:29:15.175Z,94656.47
2019-05-01T18:31:44.800Z,94660.34
2019-05-01T18:34:14.324Z,94659.59
2019-05-01T18:36:54.939Z,94661.61
2019-05-01T18:39:27.362Z,94669.94
2019-05-01T18:41:58.525Z,94664.61
2019-05-01T18:44:28.122Z,94664.80
2019-05-01T18:46:57.622Z,94669.90
2019-05-01T18:49:27.210Z,94674.56
2019-05-01T18:51:56.771Z,94675.38
2019-05-01T18:54:30.350Z,94676.34
2019-05-01T18:56:57.586Z,94671.47
2019-05-01T18:59:27.109Z,94675.47
2019-05-01T19:01:56.746Z,94672.81
2019-05-01T19:04:26.287Z,94671.09
2019-05-01T19:06:55.950Z,94674.68
2019-05-01T19:09:30.318Z,94675.91
2019-05-01T19:11:57.663Z,94682.89
2019-05-01T19:14:29.140Z,94689.18
2019-05-01T19:16:59.733Z,94685.61
2019-05-01T19:19:29.254Z,94688.70
2019-05-01T19:21:58.753Z,94683.28
2019-05-01T19:24:32.422Z,94686.66
2019-05-01T19:27:00.226Z,94692.95
2019-05-01T19:29:32.193Z,94684.54
2019-05-01T19:32:00.999Z,94688.80
2019-05-01T19:34:30.478Z,94694.30
2019-05-01T19:36:59.978Z,94691.88
2019-05-01T19:39:42.431Z,94696.66
2019-05-01T19:42:00.641Z,94699.75
2019-05-01T19:44:30.150Z,94693.86
2019-05-01T19:46:59.685Z,94693.86
2019-05-01T19:49:30.658Z,94702.55
2019-05-01T19:52:01.884Z,94703.02
2019-05-01T19:54:31.521Z,94705.45
2019-05-01T19:57:01.035Z,94707.10
2019-05-01T19:59:30.502Z,94707.41
2019-05-01T20:01:59.971Z,94711.32
2019-05-01T20:04:29.530Z,94708.70
2019-05-01T20:06:59.184Z,94710.48
2019-05-01T20:09:28.727Z,94713.22
2019-05-01T20:11:58.223Z,94708.23
2019-05-01T20:14:27.808Z,94713.89
2019-05-01T20:16:57.267Z,94710.98
2019-05-01T20:19:26.893Z,94712.33
2019-05-01T20:21:56.409Z,94716.51
2019-05-01T20:24:25.880Z,94714.16
2019-05-01T20:26:55.374Z,94716.59
2019-05-01T20:29:24.845Z,94714.30
2019-05-01T20:31:54.327Z,94709.16
2019-05-01T20:34:23.834Z,94707.43
2019-05-01T20:36:53.298Z,94709.02
2019-05-01T20:39:23.871Z,94708.14
2019-05-01T20:41:53.532Z,94703.86
2019-05-01T20:44:25.418Z,94709.52
2019-05-01T20:46:58.588Z,94704.59
2019-05-01T20:49:25.397Z,94703.62
2019-05-01T20:51:54.868Z,94704.08
2019-05-01T20:54:24.351Z,94710.72
2019-05-01T20:56:58.161Z,94709.81
2019-05-01T20:59:27.649Z,94708.59
2019-05-01T21:01:59.660Z,94709.50
2019-05-01T21:04:35.558Z,94705.67
2019-05-01T21:07:10.244Z,94706.56
2019-05-01T21:09:47.667Z,94703.77
2019-05-01T21:12:12.642Z,94707.48
2019-05-01T21:14:45.289Z,94710.34
2019-05-01T21:17:13.850Z,94708.14
2019-05-01T21:19:44.398Z,94712.98
2019-05-01T21:22:14.353Z,94712.64
2019-05-01T21:24:44.505Z,94713.86
2019-05-01T21:27:14.035Z,94717.36
2019-05-01T21:29:44.536Z,94711.16
2019-05-01T21:32:18.160Z,94711.45
2019-05-01T21:34:45.299Z,94718.05
2019-05-01T21:37:15.660Z,94706.62
2019-05-01T21:39:45.162Z,94708.78
2019-05-01T21:42:15.881Z,94707.62
2019-05-01T21:44:45.889Z,94707.67
2019-05-01T21:47:15.354Z,94707.34
2019-05-01T21:49:44.919Z,94711.19
2019-05-01T21:52:18.031Z,94708.69
2019-05-01T21:54:45.608Z,94709.13
2019-05-01T21:57:17.318Z,94702.82
2019-05-01T21:59:48.106Z,94711.70
2019-05-01T22:02:17.681Z,94711.70
2019-05-01T22:04:47.641Z,94706.72
2019-05-01T22:07:17.150Z,94708.37
2019-05-01T22:09:50.426Z,94708.30
2019-05-01T22:12:17.993Z,94709.38
2019-05-01T22:14:52.121Z,94701.77
2019-05-01T22:17:38.982Z,94703.64
2019-05-01T22:20:10.899Z,94704.55
2019-05-01T22:22:50.581Z,94707.52
2019-05-01T22:25:27.801Z,94705.83
2019-05-01T22:28:01.898Z,94704.47
2019-05-01T22:30:48.979Z,94702.58
2019-05-01T22:33:18.748Z,94705.64
2019-05-01T22:35:52.396Z,94695.81
2019-05-01T22:38:21.946Z,94698.53
2019-05-01T22:41:06.175Z,94700.46
2019-05-01T22:43:30.373Z,94696.37
2019-05-01T22:46:01.572Z,94697.13
2019-05-01T22:48:31.112Z,94691.39
2019-05-01T22:51:02.241Z,94692.61
2019-05-01T22:53:31.726Z,94695.55
2019-05-01T22:56:02.266Z,94694.70
2019-05-01T22:58:32.413Z,94693.72
2019-05-01T23:01:02.205Z,94698.05
2019-05-01T23:03:49.416Z,94692.30
2019-05-01T23:06:19.682Z,94693.75
2019-05-01T23:08:49.284Z,94698.47
2019-05-01T23:11:20.392Z,94694.78
2019-05-01T23:13:50.028Z,94699.54
2019-05-01T23:16:21.213Z,94691.83
2019-05-01T23:18:51.911Z,94695.80
2019-05-01T23:21:21.922Z,94691.75
2019-05-01T23:23:51.404Z,94682.63
2019-05-01T23:26:20.913Z,94692.45
2019-05-01T23:28:50.462Z,94690.77
2019-05-01T23:31:20.418Z,94684.83
2019-05-01T23:33:50.634Z,94679.77
2019-05-01T23:36:23.846Z,94677.66
2019-05-01T23:38:52.485Z,94679.23
2019-05-01T23:41:24.771Z,94674.39
2019-05-01T23:43:53.218Z,94681.53
2019-05-01T23:46:22.689Z,94680.16
2019-05-01T23:48:52.211Z,94671.98
2019-05-01T23:51:23.613Z,94670.48
2019-05-01T23:53:52.891Z,94672.84
2019-05-01T23:56:22.364Z,94675.91
2019-05-01T23:58:51.844Z,94661.30
